createdAt,value
2024-04-14T00:00:06.568Z,68.87
2024-04-14T00:00:26.539Z,68.87
2024-04-14T00:00:36.671Z,68.98
2024-04-14T00:00:47.257Z,69.18
2024-04-14T00:00:56.536Z,69.28
2024-04-14T00:01:06.627Z,69.28
2024-04-14T00:01:16.516Z,69.28
2024-04-14T00:01:26.563Z,69.38
2024-04-14T00:01:46.539Z,69.18
2024-04-14T00:01:56.550Z,69.18
2024-04-14T00:02:06.576Z,69.18
2024-04-14T00:02:16.476Z,69.18
2024-04-14T00:02:26.506Z,69.11
2024-04-14T00:02:37.246Z,69.08
2024-04-14T00:02:46.568Z,68.98
2024-04-14T00:03:06.496Z,68.87
2024-04-14T00:03:16.569Z,68.87
2024-04-14T00:03:26.566Z,69.08
2024-04-14T00:03:36.497Z,69.08
2024-04-14T00:03:46.565Z,69.18
2024-04-14T00:03:56.511Z,69.18
2024-04-14T00:04:17.499Z,68.98
2024-04-14T00:04:26.567Z,69.08
2024-04-14T00:04:36.668Z,69.18
2024-04-14T00:04:46.731Z,69.28
2024-04-14T00:04:56.585Z,69.38
2024-04-14T00:05:06.666Z,69.38
2024-04-14T00:05:26.495Z,69.48
2024-04-14T00:05:36.547Z,69.68
2024-04-14T00:05:46.445Z,69.68
2024-04-14T00:05:56.470Z,69.89
2024-04-14T00:06:06.496Z,69.98
2024-04-14T00:06:16.458Z,70.09
2024-04-14T00:06:26.558Z,70.09
2024-04-14T00:06:46.544Z,70.22
2024-04-14T00:06:56.691Z,70.29
2024-04-14T00:07:06.518Z,70.39
2024-04-14T00:07:16.444Z,70.19
2024-04-14T00:07:26.444Z,70.02
2024-04-14T00:07:36.463Z,69.92
2024-04-14T00:07:56.447Z,69.98
2024-04-14T00:08:06.533Z,70.02
2024-04-14T00:08:16.504Z,70.09
2024-04-14T00:08:29.328Z,70.22
2024-04-14T00:08:36.455Z,70.02
2024-04-14T00:08:46.425Z,69.71
2024-04-14T00:09:06.614Z,69.71
2024-04-14T00:09:16.434Z,69.62
2024-04-14T00:09:26.486Z,69.71
2024-04-14T00:09:36.509Z,69.71
2024-04-14T00:09:46.498Z,69.82
2024-04-14T00:09:56.487Z,70.02
2024-04-14T00:10:16.438Z,70.22
2024-04-14T00:10:27.421Z,70.02
2024-04-14T00:10:36.439Z,69.82
2024-04-14T00:10:46.595Z,69.71
2024-04-14T00:10:56.476Z,69.62
2024-04-14T00:11:06.450Z,69.62
2024-04-14T00:11:16.580Z,69.51
2024-04-14T00:11:36.445Z,69.62
2024-04-14T00:11:46.489Z,69.62
2024-04-14T00:11:56.414Z,69.42
2024-04-14T00:12:06.441Z,69.31
2024-04-14T00:12:16.464Z,69.38
2024-04-14T00:12:26.451Z,69.71
2024-04-14T00:12:46.442Z,69.68
2024-04-14T00:12:56.530Z,69.82
2024-04-14T00:13:06.478Z,69.71
2024-04-14T00:13:16.439Z,69.42
2024-04-14T00:13:26.425Z,69.31
2024-04-14T00:13:36.455Z,69.11
2024-04-14T00:13:46.462Z,68.98
2024-04-14T00:14:06.435Z,68.77
2024-04-14T00:14:16.445Z,68.57
2024-04-14T00:14:26.458Z,68.47
2024-04-14T00:14:36.445Z,68.37
2024-04-14T00:14:47.282Z,68.17
2024-04-14T00:14:56.428Z,68.04
2024-04-14T00:15:07.275Z,67.83
2024-04-14T00:15:16.528Z,67.86
2024-04-14T00:15:36.453Z,67.53
2024-04-14T00:15:46.460Z,67.53
2024-04-14T00:15:56.511Z,67.50
2024-04-14T00:16:06.469Z,67.40
2024-04-14T00:16:17.258Z,67.33
2024-04-14T00:16:26.518Z,67.23
2024-04-14T00:16:46.422Z,67.10
2024-04-14T00:16:56.436Z,66.89
2024-04-14T00:17:06.452Z,66.89
2024-04-14T00:17:16.483Z,66.69
2024-04-14T00:17:26.544Z,66.59
2024-04-14T00:17:36.529Z,66.59
2024-04-14T00:17:56.468Z,66.69
2024-04-14T00:18:06.602Z,66.59
2024-04-14T00:18:16.490Z,66.56
2024-04-14T00:18:26.534Z,66.49
2024-04-14T00:18:36.553Z,66.46
2024-04-14T00:18:46.624Z,66.49
2024-04-14T00:18:56.507Z,66.59
2024-04-14T00:19:17.376Z,66.25
2024-04-14T00:19:26.396Z,66.25
2024-04-14T00:19:36.541Z,66.29
2024-04-14T00:19:46.429Z,66.19
2024-04-14T00:19:56.378Z,66.19
2024-04-14T00:20:06.426Z,66.16
2024-04-14T00:20:26.407Z,66.16
2024-04-14T00:20:36.404Z,66.16
2024-04-14T00:20:47.226Z,66.25
2024-04-14T00:20:56.368Z,66.25
2024-04-14T00:21:06.420Z,66.29
2024-04-14T00:21:16.390Z,66.16
2024-04-14T00:21:26.451Z,66.08
2024-04-14T00:21:36.568Z,66.05
2024-04-14T00:21:56.487Z,65.99
2024-04-14T00:22:06.422Z,65.88
2024-04-14T00:22:16.383Z,65.85
2024-04-14T00:22:26.369Z,65.75
2024-04-14T00:22:36.598Z,65.75
2024-04-14T00:22:46.434Z,65.65
2024-04-14T00:22:57.276Z,65.55
2024-04-14T00:23:16.380Z,65.55
2024-04-14T00:23:27.277Z,65.65
2024-04-14T00:23:36.474Z,65.65
2024-04-14T00:23:46.360Z,65.65
2024-04-14T00:23:56.420Z,65.55
2024-04-14T00:24:06.373Z,65.55
2024-04-14T00:24:26.395Z,65.95
2024-04-14T00:24:36.473Z,66.05
2024-04-14T00:24:46.436Z,66.16
2024-04-14T00:24:56.474Z,66.16
2024-04-14T00:25:07.278Z,65.92
2024-04-14T00:25:16.425Z,65.75
2024-04-14T00:25:26.403Z,65.75
2024-04-14T00:25:36.433Z,65.65
2024-04-14T00:25:56.380Z,65.55
2024-04-14T00:26:06.412Z,65.55
2024-04-14T00:26:16.396Z,65.65
2024-04-14T00:26:26.375Z,65.55
2024-04-14T00:26:36.342Z,65.45
2024-04-14T00:26:46.391Z,65.45
2024-04-14T00:27:06.452Z,65.35
2024-04-14T00:27:16.379Z,65.35
2024-04-14T00:27:26.358Z,65.35
2024-04-14T00:27:36.419Z,65.45
2024-04-14T00:27:46.552Z,65.45
2024-04-14T00:27:56.473Z,65.52
2024-04-14T00:28:16.384Z,65.72
2024-04-14T00:28:26.384Z,65.95
2024-04-14T00:28:36.375Z,65.92
2024-04-14T00:28:46.445Z,65.85
2024-04-14T00:28:56.343Z,65.65
2024-04-14T00:29:06.347Z,65.65
2024-04-14T00:29:16.397Z,65.65
2024-04-14T00:29:36.334Z,65.25
2024-04-14T00:29:46.381Z,65.25
2024-04-14T00:29:56.341Z,65.15
2024-04-14T00:30:06.357Z,65.25
2024-04-14T00:30:16.376Z,65.35
2024-04-14T00:30:26.366Z,65.35
2024-04-14T00:30:36.418Z,65.45
2024-04-14T00:30:57.315Z,65.55
2024-04-14T00:31:06.388Z,65.45
2024-04-14T00:31:17.249Z,65.35
2024-04-14T00:31:26.368Z,65.35
2024-04-14T00:31:36.394Z,65.35
2024-04-14T00:31:46.383Z,65.35
2024-04-14T00:32:06.373Z,65.25
2024-04-14T00:32:16.338Z,65.25
2024-04-14T00:32:26.394Z,65.35
2024-04-14T00:32:36.433Z,65.15
2024-04-14T00:32:46.356Z,65.05
2024-04-14T00:32:56.451Z,64.92
2024-04-14T00:33:16.527Z,64.95
2024-04-14T00:33:26.359Z,64.75
2024-04-14T00:33:36.532Z,64.84
2024-04-14T00:33:46.456Z,64.95
2024-04-14T00:33:56.440Z,64.95
2024-04-14T00:34:06.491Z,64.95
2024-04-14T00:34:16.376Z,64.95
2024-04-14T00:34:26.329Z,65.15
2024-04-14T00:34:46.371Z,65.05
2024-04-14T00:34:56.349Z,64.95
2024-04-14T00:35:07.419Z,64.75
2024-04-14T00:35:16.336Z,64.75
2024-04-14T00:35:26.335Z,64.84
2024-04-14T00:35:37.397Z,64.95
2024-04-14T00:35:57.366Z,64.95
2024-04-14T00:36:06.500Z,65.05
2024-04-14T00:36:16.514Z,64.95
2024-04-14T00:36:26.324Z,64.84
2024-04-14T00:36:37.303Z,64.75
2024-04-14T00:36:46.344Z,64.64
2024-04-14T00:37:06.323Z,64.75
2024-04-14T00:37:16.379Z,64.64
2024-04-14T00:37:26.313Z,64.75
2024-04-14T00:37:36.345Z,64.75
2024-04-14T00:37:46.329Z,64.64
2024-04-14T00:37:56.340Z,64.54
2024-04-14T00:38:06.454Z,64.51
2024-04-14T00:38:26.312Z,64.84
2024-04-14T00:38:37.237Z,64.95
2024-04-14T00:38:46.373Z,64.92
2024-04-14T00:38:56.305Z,64.84
2024-04-14T00:39:06.290Z,64.84
2024-04-14T00:39:16.316Z,64.84
2024-04-14T00:39:36.324Z,64.84
2024-04-14T00:39:46.369Z,64.84
2024-04-14T00:39:56.343Z,64.75
2024-04-14T00:40:06.337Z,64.75
2024-04-14T00:40:16.287Z,64.75
2024-04-14T00:40:26.323Z,64.54
2024-04-14T00:40:36.328Z,64.54
2024-04-14T00:40:56.325Z,64.75
2024-04-14T00:41:06.325Z,64.84
2024-04-14T00:41:16.282Z,64.75
2024-04-14T00:41:26.297Z,64.75
2024-04-14T00:41:36.313Z,64.95
2024-04-14T00:41:46.306Z,64.75
2024-04-14T00:42:06.316Z,64.81
2024-04-14T00:42:16.334Z,64.84
2024-04-14T00:42:26.299Z,64.64
2024-04-14T00:42:36.359Z,64.75
2024-04-14T00:42:46.394Z,64.95
2024-04-14T00:42:56.377Z,64.84
2024-04-14T00:43:06.363Z,64.84
2024-04-14T00:43:16.819Z,64.72
2024-04-14T00:43:36.282Z,64.64
2024-04-14T00:43:46.272Z,64.64
2024-04-14T00:43:56.293Z,64.34
2024-04-14T00:44:06.272Z,64.31
2024-04-14T00:44:16.287Z,64.54
2024-04-14T00:44:26.432Z,64.44
2024-04-14T00:44:36.356Z,64.54
2024-04-14T00:44:56.268Z,64.64
2024-04-14T00:45:06.307Z,64.72
2024-04-14T00:45:16.266Z,64.64
2024-04-14T00:45:26.288Z,64.54
2024-04-14T00:45:36.295Z,64.54
2024-04-14T00:45:46.396Z,64.54
2024-04-14T00:45:56.366Z,64.64
2024-04-14T00:46:06.337Z,64.64
2024-04-14T00:46:26.321Z,64.54
2024-04-14T00:46:36.408Z,64.64
2024-04-14T00:46:46.299Z,64.75
2024-04-14T00:46:56.277Z,64.75
2024-04-14T00:47:06.271Z,64.84
2024-04-14T00:47:16.250Z,64.84
2024-04-14T00:47:36.308Z,64.64
2024-04-14T00:47:46.311Z,64.64
2024-04-14T00:47:57.388Z,64.64
2024-04-14T00:48:06.348Z,64.64
2024-04-14T00:48:16.432Z,64.64
2024-04-14T00:48:26.431Z,64.44
2024-04-14T00:48:37.463Z,64.44
2024-04-14T00:48:46.318Z,64.44
2024-04-14T00:48:57.511Z,64.44
2024-04-14T00:49:16.326Z,64.34
2024-04-14T00:49:26.412Z,64.54
2024-04-14T00:49:36.237Z,64.44
2024-04-14T00:49:46.269Z,64.14
2024-04-14T00:49:56.351Z,64.24
2024-04-14T00:50:06.265Z,64.21
2024-04-14T00:50:16.354Z,64.14
2024-04-14T00:50:36.320Z,64.24
2024-04-14T00:50:46.239Z,64.24
2024-04-14T00:50:56.270Z,64.14
2024-04-14T00:51:06.261Z,64.14
2024-04-14T00:51:16.279Z,64.24
2024-04-14T00:51:26.297Z,64.34
2024-04-14T00:51:46.273Z,64.44
2024-04-14T00:51:56.286Z,64.14
2024-04-14T00:52:06.259Z,64.04
2024-04-14T00:52:16.291Z,63.93
2024-04-14T00:52:26.273Z,64.04
2024-04-14T00:52:36.890Z,64.11
2024-04-14T00:52:56.257Z,64.14
2024-04-14T00:53:06.338Z,63.84
2024-04-14T00:53:16.247Z,63.81
2024-04-14T00:53:26.251Z,64.11
2024-04-14T00:53:36.370Z,64.24
2024-04-14T00:53:46.265Z,64.44
2024-04-14T00:53:56.288Z,64.54
2024-04-14T00:54:16.254Z,64.14
2024-04-14T00:54:26.271Z,64.04
2024-04-14T00:54:36.299Z,64.14
2024-04-14T00:54:46.391Z,64.14
2024-04-14T00:54:56.449Z,64.11
2024-04-14T00:55:06.370Z,64.24
2024-04-14T00:55:26.228Z,64.44
2024-04-14T00:55:36.260Z,64.34
2024-04-14T00:55:46.226Z,64.44
2024-04-14T00:55:56.232Z,64.44
2024-04-14T00:56:06.238Z,64.54
2024-04-14T00:56:16.236Z,64.54
2024-04-14T00:56:26.294Z,64.64
2024-04-14T00:56:46.281Z,64.34
2024-04-14T00:56:56.216Z,64.04
2024-04-14T00:57:06.254Z,64.14
2024-04-14T00:57:16.254Z,64.14
2024-04-14T00:57:26.242Z,64.17
2024-04-14T00:57:36.248Z,64.14
2024-04-14T00:57:56.286Z,64.44
2024-04-14T00:58:06.311Z,64.24
2024-04-14T00:58:16.231Z,64.24
2024-04-14T00:58:26.787Z,64.24
2024-04-14T00:58:36.319Z,64.27
2024-04-14T00:58:46.280Z,64.34
2024-04-14T00:58:56.292Z,64.44
2024-04-14T00:59:06.345Z,64.24
2024-04-14T00:59:16.211Z,64.04
2024-04-14T00:59:36.251Z,64.14
2024-04-14T00:59:46.206Z,64.14
2024-04-14T00:59:56.219Z,64.14
2024-04-14T01:00:06.264Z,64.14
2024-04-14T01:00:16.239Z,64.14
2024-04-14T01:00:26.301Z,64.04
2024-04-14T01:00:36.312Z,64.14
2024-04-14T01:00:46.352Z,64.14
2024-04-14T01:00:56.447Z,64.04
2024-04-14T01:01:16.837Z,64.24
2024-04-14T01:01:26.285Z,64.34
2024-04-14T01:01:36.235Z,64.27
2024-04-14T01:01:46.266Z,64.04
2024-04-14T01:01:56.242Z,63.93
2024-04-14T01:02:07.560Z,64.04
2024-04-14T01:02:26.251Z,64.34
2024-04-14T01:02:36.196Z,64.04
2024-04-14T01:02:46.308Z,63.73
2024-04-14T01:02:56.961Z,63.84
2024-04-14T01:03:06.254Z,64.04
2024-04-14T01:03:16.264Z,64.01
2024-04-14T01:03:26.434Z,64.14
2024-04-14T01:03:36.417Z,64.34
2024-04-14T01:03:56.369Z,64.24
2024-04-14T01:04:06.373Z,64.34
2024-04-14T01:04:16.365Z,64.24
2024-04-14T01:04:26.815Z,64.24
2024-04-14T01:04:36.341Z,64.24
2024-04-14T01:04:46.318Z,64.04
2024-04-14T01:05:06.261Z,64.24
2024-04-14T01:05:16.264Z,64.34
2024-04-14T01:05:26.196Z,64.04
2024-04-14T01:05:36.205Z,64.04
2024-04-14T01:05:46.771Z,63.73
2024-04-14T01:05:56.171Z,63.64
2024-04-14T01:06:16.183Z,63.53
2024-04-14T01:06:26.232Z,63.53
2024-04-14T01:06:36.295Z,63.53
2024-04-14T01:06:46.259Z,63.53
2024-04-14T01:06:56.410Z,63.53
2024-04-14T01:07:06.251Z,63.53
2024-04-14T01:07:16.272Z,63.84
2024-04-14T01:07:26.223Z,63.93
2024-04-14T01:07:46.215Z,63.93
2024-04-14T01:07:56.306Z,63.93
2024-04-14T01:08:06.214Z,63.73
2024-04-14T01:08:16.263Z,63.43
2024-04-14T01:08:26.279Z,63.33
2024-04-14T01:08:36.176Z,63.20
2024-04-14T01:08:46.762Z,63.30
2024-04-14T01:09:06.216Z,63.64
2024-04-14T01:09:16.768Z,63.81
2024-04-14T01:09:26.254Z,63.84
2024-04-14T01:09:36.276Z,63.73
2024-04-14T01:09:46.210Z,63.84
2024-04-14T01:09:56.336Z,63.53
2024-04-14T01:10:16.776Z,63.20
2024-04-14T01:10:26.165Z,63.33
2024-04-14T01:10:36.172Z,63.64
2024-04-14T01:10:46.185Z,63.53
2024-04-14T01:10:56.247Z,63.40
2024-04-14T01:11:06.229Z,63.43
2024-04-14T01:11:26.207Z,63.43
2024-04-14T01:11:36.178Z,63.13
2024-04-14T01:11:46.235Z,62.80
2024-04-14T01:11:56.194Z,62.83
2024-04-14T01:12:06.141Z,62.63
2024-04-14T01:12:16.180Z,62.60
2024-04-14T01:12:26.256Z,62.63
2024-04-14T01:12:46.219Z,62.80
2024-04-14T01:12:56.299Z,62.90
2024-04-14T01:13:06.198Z,63.00
2024-04-14T01:13:16.205Z,63.20
2024-04-14T01:13:26.211Z,63.30
2024-04-14T01:13:36.261Z,63.20
2024-04-14T01:13:46.204Z,63.00
2024-04-14T01:14:06.196Z,62.83
2024-04-14T01:14:16.366Z,62.93
2024-04-14T01:14:26.760Z,62.90
2024-04-14T01:14:36.176Z,63.13
2024-04-14T01:14:46.134Z,63.00
2024-04-14T01:14:56.160Z,62.73
2024-04-14T01:15:06.160Z,62.83
2024-04-14T01:15:26.149Z,62.80
2024-04-14T01:15:36.217Z,62.80
2024-04-14T01:15:46.182Z,62.60
2024-04-14T01:15:56.285Z,62.60
2024-04-14T01:16:06.275Z,62.70
2024-04-14T01:16:16.143Z,62.70
2024-04-14T01:16:26.171Z,62.49
2024-04-14T01:16:46.140Z,62.49
2024-04-14T01:16:56.142Z,62.29
2024-04-14T01:17:06.229Z,62.60
2024-04-14T01:17:16.221Z,62.80
2024-04-14T01:17:26.170Z,62.80
2024-04-14T01:17:36.959Z,62.60
2024-04-14T01:17:46.308Z,62.29
2024-04-14T01:17:56.355Z,62.29
2024-04-14T01:18:16.143Z,62.70
2024-04-14T01:18:26.207Z,62.90
2024-04-14T01:18:36.208Z,62.80
2024-04-14T01:18:46.193Z,62.90
2024-04-14T01:18:56.204Z,63.10
2024-04-14T01:19:06.281Z,63.20
2024-04-14T01:19:16.182Z,63.10
2024-04-14T01:19:26.170Z,62.90
2024-04-14T01:19:46.166Z,62.70
2024-04-14T01:19:56.156Z,62.60
2024-04-14T01:20:06.118Z,62.19
2024-04-14T01:20:16.179Z,62.19
2024-04-14T01:20:26.129Z,62.19
2024-04-14T01:20:36.138Z,62.49
2024-04-14T01:20:46.199Z,62.40
2024-04-14T01:21:06.150Z,62.80
2024-04-14T01:21:16.756Z,62.90
2024-04-14T01:21:26.218Z,62.70
2024-04-14T01:21:36.173Z,62.60
2024-04-14T01:21:46.920Z,62.70
2024-04-14T01:21:56.306Z,62.80
2024-04-14T01:22:06.165Z,63.00
2024-04-14T01:22:26.163Z,61.89
2024-04-14T01:22:36.131Z,61.89
2024-04-14T01:22:46.262Z,62.19
2024-04-14T01:22:56.122Z,62.60
2024-04-14T01:23:06.201Z,62.49
2024-04-14T01:23:16.172Z,62.29
2024-04-14T01:23:26.139Z,62.29
2024-04-14T01:23:46.145Z,62.19
2024-04-14T01:23:56.137Z,62.60
2024-04-14T01:24:06.127Z,62.60
2024-04-14T01:24:16.163Z,62.49
2024-04-14T01:24:26.230Z,62.49
2024-04-14T01:24:36.171Z,62.19
2024-04-14T01:24:57.811Z,62.09
2024-04-14T01:25:06.191Z,62.09
2024-04-14T01:25:16.174Z,61.89
2024-04-14T01:25:26.087Z,61.79
2024-04-14T01:25:36.192Z,61.79
2024-04-14T01:25:46.127Z,61.69
2024-04-14T01:25:56.111Z,61.89
2024-04-14T01:26:06.943Z,61.89
2024-04-14T01:26:26.093Z,61.99
2024-04-14T01:26:36.102Z,61.99
2024-04-14T01:26:46.157Z,61.99
2024-04-14T01:26:56.168Z,61.59
2024-04-14T01:27:06.124Z,61.29
2024-04-14T01:27:16.560Z,61.16
2024-04-14T01:27:26.874Z,61.29
2024-04-14T01:27:36.216Z,61.25
2024-04-14T01:27:56.858Z,61.36
2024-04-14T01:28:06.197Z,61.56
2024-04-14T01:28:16.129Z,61.36
2024-04-14T01:28:26.119Z,61.16
2024-04-14T01:28:36.076Z,61.16
2024-04-14T01:28:46.094Z,61.05
2024-04-14T01:29:06.093Z,61.05
2024-04-14T01:29:16.083Z,61.16
2024-04-14T01:29:26.117Z,61.25
2024-04-14T01:29:36.145Z,61.25
2024-04-14T01:29:46.312Z,61.46
2024-04-14T01:29:56.126Z,61.25
2024-04-14T01:30:06.102Z,61.16
2024-04-14T01:30:26.108Z,61.16
2024-04-14T01:30:36.113Z,60.96
2024-04-14T01:30:46.125Z,61.16
2024-04-14T01:30:56.134Z,60.96
2024-04-14T01:31:06.061Z,60.65
2024-04-14T01:31:16.845Z,60.75
2024-04-14T01:31:26.096Z,60.72
2024-04-14T01:31:46.092Z,60.42
2024-04-14T01:31:56.127Z,60.35
2024-04-14T01:32:06.162Z,60.65
2024-04-14T01:32:16.144Z,60.65
2024-04-14T01:32:26.110Z,60.72
2024-04-14T01:32:36.100Z,60.72
2024-04-14T01:32:56.250Z,60.42
2024-04-14T01:33:06.158Z,60.42
2024-04-14T01:33:16.058Z,60.45
2024-04-14T01:33:26.125Z,60.32
2024-04-14T01:33:36.092Z,60.22
2024-04-14T01:33:46.129Z,60.22
2024-04-14T01:34:06.757Z,60.72
2024-04-14T01:34:16.755Z,60.72
2024-04-14T01:34:26.764Z,60.52
2024-04-14T01:34:36.759Z,60.32
2024-04-14T01:34:46.057Z,60.42
2024-04-14T01:34:56.114Z,60.55
2024-04-14T01:35:16.086Z,60.72
2024-04-14T01:35:26.059Z,61.05
2024-04-14T01:35:36.100Z,61.16
2024-04-14T01:35:46.092Z,61.13
2024-04-14T01:35:56.087Z,61.13
2024-04-14T01:36:06.044Z,60.96
2024-04-14T01:36:16.071Z,60.75
2024-04-14T01:36:26.131Z,60.72
2024-04-14T01:36:36.852Z,60.83
2024-04-14T01:36:56.153Z,60.85
2024-04-14T01:37:06.041Z,60.85
2024-04-14T01:37:16.120Z,60.85
2024-04-14T01:37:26.050Z,60.75
2024-04-14T01:37:36.107Z,60.65
2024-04-14T01:37:46.056Z,60.63
2024-04-14T01:38:15.901Z,60.63
2024-04-14T01:38:22.105Z,60.65
2024-04-14T01:38:26.808Z,60.65
2024-04-14T01:38:36.044Z,60.65
2024-04-14T01:38:46.057Z,60.55
2024-04-14T01:38:56.043Z,60.52
2024-04-14T01:39:16.079Z,60.85
2024-04-14T01:39:26.192Z,60.85
2024-04-14T01:39:36.156Z,60.85
2024-04-14T01:39:46.041Z,60.85
2024-04-14T01:39:56.133Z,60.75
2024-04-14T01:40:06.083Z,60.52
2024-04-14T01:40:16.083Z,60.55
2024-04-14T01:40:26.101Z,60.63
2024-04-14T01:40:46.150Z,60.35
2024-04-14T01:40:56.043Z,60.45
2024-04-14T01:41:06.043Z,60.42
2024-04-14T01:41:16.094Z,60.42
2024-04-14T01:41:26.051Z,60.42
2024-04-14T01:41:36.077Z,60.52
2024-04-14T01:41:56.764Z,60.63
2024-04-14T01:42:06.056Z,60.42
2024-04-14T01:42:16.043Z,60.32
2024-04-14T01:42:26.046Z,60.22
2024-04-14T01:42:36.821Z,60.12
2024-04-14T01:42:46.056Z,60.09
2024-04-14T01:43:06.038Z,60.02
2024-04-14T01:43:16.032Z,59.92
2024-04-14T01:43:26.136Z,59.92
2024-04-14T01:43:36.053Z,59.92
2024-04-14T01:43:46.015Z,59.92
2024-04-14T01:43:56.018Z,59.92
2024-04-14T01:44:16.763Z,59.92
2024-04-14T01:44:26.848Z,59.92
2024-04-14T01:44:36.120Z,60.02
2024-04-14T01:44:46.049Z,60.02
2024-04-14T01:44:56.012Z,60.09
2024-04-14T01:45:06.001Z,60.02
2024-04-14T01:45:17.251Z,59.82
2024-04-14T01:45:36.107Z,59.82
2024-04-14T01:45:46.118Z,59.89
2024-04-14T01:45:56.084Z,59.89
2024-04-14T01:46:06.055Z,59.92
2024-04-14T01:46:16.010Z,59.89
2024-04-14T01:46:25.996Z,59.82
2024-04-14T01:46:46.764Z,60.02
2024-04-14T01:46:56.002Z,60.12
2024-04-14T01:47:06.045Z,60.02
2024-04-14T01:47:16.019Z,59.92
2024-04-14T01:47:26.057Z,60.12
2024-04-14T01:47:36.116Z,60.12
2024-04-14T01:47:56.099Z,60.12
2024-04-14T01:48:06.180Z,60.12
2024-04-14T01:48:16.151Z,60.02
2024-04-14T01:48:26.081Z,60.12
2024-04-14T01:48:36.141Z,59.92
2024-04-14T01:48:46.208Z,60.32
2024-04-14T01:48:56.206Z,60.42
2024-04-14T01:49:06.177Z,60.32
2024-04-14T01:49:16.175Z,60.09
2024-04-14T01:49:26.089Z,60.12
2024-04-14T01:49:46.035Z,59.89
2024-04-14T01:49:56.011Z,59.92
2024-04-14T01:50:06.034Z,59.92
2024-04-14T01:50:15.999Z,60.02
2024-04-14T01:50:26.093Z,59.89
2024-04-14T01:50:36.106Z,60.05
2024-04-14T01:50:46.043Z,60.09
2024-04-14T01:50:56.784Z,60.02
2024-04-14T01:51:16.064Z,59.79
2024-04-14T01:51:26.020Z,59.72
2024-04-14T01:51:36.025Z,59.72
2024-04-14T01:51:46.010Z,59.92
2024-04-14T01:51:56.036Z,59.89
2024-04-14T01:52:06.014Z,59.92
2024-04-14T01:52:26.798Z,59.89
2024-04-14T01:52:36.796Z,59.89
2024-04-14T01:52:45.996Z,60.02
2024-04-14T01:52:56.789Z,60.02
2024-04-14T01:53:06.047Z,60.12
2024-04-14T01:53:15.998Z,60.12
2024-04-14T01:53:36.058Z,60.12
2024-04-14T01:53:45.968Z,60.12
2024-04-14T01:53:56.841Z,60.02
2024-04-14T01:54:06.791Z,59.92
2024-04-14T01:54:16.005Z,60.02
2024-04-14T01:54:26.070Z,59.99
2024-04-14T01:54:36.083Z,60.12
2024-04-14T01:54:46.019Z,60.22
2024-04-14T01:55:06.782Z,60.42
2024-04-14T01:55:15.955Z,60.22
2024-04-14T01:55:26.158Z,60.22
2024-04-14T01:55:36.059Z,60.22
2024-04-14T01:55:46.032Z,60.12
2024-04-14T01:55:55.965Z,60.12
2024-04-14T01:56:16.105Z,60.22
2024-04-14T01:56:25.960Z,60.32
2024-04-14T01:56:35.959Z,60.32
2024-04-14T01:56:45.986Z,60.32
2024-04-14T01:56:55.949Z,60.42
2024-04-14T01:57:06.000Z,60.42
2024-04-14T01:57:25.983Z,60.32
2024-04-14T01:57:36.027Z,60.42
2024-04-14T01:57:46.002Z,60.39
2024-04-14T01:57:56.098Z,60.42
2024-04-14T01:58:06.051Z,60.42
2024-04-14T01:58:16.008Z,60.52
2024-04-14T01:58:25.966Z,60.39
2024-04-14T01:58:45.979Z,60.52
2024-04-14T01:58:55.955Z,60.52
2024-04-14T01:59:06.015Z,60.52
2024-04-14T01:59:16.754Z,60.42
2024-04-14T01:59:25.978Z,60.52
2024-04-14T01:59:36.126Z,60.52
2024-04-14T01:59:56.033Z,60.52
2024-04-14T02:00:05.979Z,60.52
2024-04-14T02:00:15.949Z,60.52
2024-04-14T02:00:26.023Z,60.52
2024-04-14T02:00:36.068Z,60.52
2024-04-14T02:00:46.176Z,60.52
2024-04-14T02:01:05.992Z,60.63
2024-04-14T02:01:16.028Z,60.63
2024-04-14T02:01:26.132Z,60.65
2024-04-14T02:01:36.020Z,60.52
2024-04-14T02:01:46.116Z,60.52
2024-04-14T02:01:56.003Z,60.52
2024-04-14T02:02:05.986Z,60.52
2024-04-14T02:02:25.970Z,60.63
2024-04-14T02:02:36.037Z,60.63
2024-04-14T02:02:45.993Z,60.63
2024-04-14T02:02:56.069Z,60.52
2024-04-14T02:03:06.000Z,60.63
2024-04-14T02:03:16.837Z,60.72
2024-04-14T02:03:26.894Z,60.72
2024-04-14T02:03:36.173Z,60.63
2024-04-14T02:03:56.042Z,60.72
2024-04-14T02:04:06.130Z,60.83
2024-04-14T02:04:26.012Z,60.83
2024-04-14T02:04:35.995Z,60.83
2024-04-14T02:04:46.159Z,60.72
2024-04-14T02:04:55.968Z,60.72
2024-04-14T02:05:15.994Z,60.72
2024-04-14T02:05:25.932Z,60.72
2024-04-14T02:05:35.984Z,60.72
2024-04-14T02:05:45.981Z,60.63
2024-04-14T02:05:56.005Z,60.72
2024-04-14T02:06:05.999Z,60.72
2024-04-14T02:06:16.013Z,60.83
2024-04-14T02:06:35.956Z,60.83
2024-04-14T02:06:46.020Z,60.83
2024-04-14T02:06:56.065Z,60.83
2024-04-14T02:07:06.061Z,60.83
2024-04-14T02:07:16.050Z,60.83
2024-04-14T02:07:25.995Z,60.83
2024-04-14T02:07:36.831Z,60.83
2024-04-14T02:07:46.065Z,60.83
2024-04-14T02:07:55.918Z,60.83
2024-04-14T02:08:15.935Z,61.05
2024-04-14T02:08:25.948Z,60.93
2024-04-14T02:08:35.912Z,60.93
2024-04-14T02:08:45.909Z,60.93
2024-04-14T02:08:56.005Z,60.93
2024-04-14T02:09:06.790Z,60.93
2024-04-14T02:09:26.944Z,61.03
2024-04-14T02:09:35.949Z,61.03
2024-04-14T02:09:46.174Z,60.93
2024-04-14T02:09:55.958Z,60.93
2024-04-14T02:10:05.986Z,61.03
2024-04-14T02:10:15.921Z,61.03
2024-04-14T02:10:35.955Z,61.13
2024-04-14T02:10:46.834Z,61.03
2024-04-14T02:10:55.940Z,61.13
2024-04-14T02:11:06.012Z,61.03
2024-04-14T02:11:15.936Z,61.03
2024-04-14T02:11:25.959Z,60.93
2024-04-14T02:11:46.783Z,61.03
2024-04-14T02:11:55.897Z,61.03
2024-04-14T02:12:05.891Z,61.03
2024-04-14T02:12:15.903Z,61.03
2024-04-14T02:12:25.992Z,61.03
2024-04-14T02:12:35.915Z,61.03
2024-04-14T02:12:55.941Z,61.03
2024-04-14T02:13:05.934Z,61.03
2024-04-14T02:13:16.000Z,61.03
2024-04-14T02:13:25.933Z,61.13
2024-04-14T02:13:35.974Z,61.13
2024-04-14T02:13:46.855Z,61.13
2024-04-14T02:13:56.050Z,61.16
2024-04-14T02:14:05.926Z,61.13
2024-04-14T02:14:25.878Z,61.13
2024-04-14T02:14:35.993Z,61.13
2024-04-14T02:14:45.895Z,61.23
2024-04-14T02:14:55.885Z,61.13
2024-04-14T02:15:05.888Z,61.13
2024-04-14T02:15:15.913Z,61.13
2024-04-14T02:15:25.982Z,61.23
2024-04-14T02:15:45.958Z,61.23
2024-04-14T02:15:56.881Z,61.23
2024-04-14T02:16:06.868Z,61.23
2024-04-14T02:16:16.015Z,61.33
2024-04-14T02:16:25.868Z,61.33
2024-04-14T02:16:35.924Z,61.43
2024-04-14T02:16:55.899Z,61.43
2024-04-14T02:17:05.885Z,61.43
2024-04-14T02:17:15.949Z,61.43
2024-04-14T02:17:25.913Z,61.33
2024-04-14T02:17:35.963Z,61.43
2024-04-14T02:17:46.196Z,61.46
2024-04-14T02:17:56.047Z,61.43
2024-04-14T02:18:06.107Z,61.33
2024-04-14T02:18:25.943Z,61.43
2024-04-14T02:18:35.944Z,61.43
2024-04-14T02:18:45.949Z,61.53
2024-04-14T02:18:56.006Z,61.53
2024-04-14T02:19:05.917Z,61.46
2024-04-14T02:19:16.953Z,61.53
2024-04-14T02:19:25.961Z,61.53
2024-04-14T02:19:35.895Z,61.63
2024-04-14T02:19:55.872Z,61.63
2024-04-14T02:20:06.768Z,61.63
2024-04-14T02:20:16.144Z,61.63
2024-04-14T02:20:25.880Z,61.56
2024-04-14T02:20:35.879Z,61.53
2024-04-14T02:20:45.868Z,61.63
2024-04-14T02:21:05.903Z,61.63
2024-04-14T02:21:15.893Z,61.63
2024-04-14T02:21:25.973Z,61.66
2024-04-14T02:21:35.930Z,61.66
2024-04-14T02:21:45.939Z,61.63
2024-04-14T02:21:55.925Z,61.73
2024-04-14T02:22:15.945Z,61.66
2024-04-14T02:22:25.845Z,61.73
2024-04-14T02:22:35.858Z,61.73
2024-04-14T02:22:45.850Z,61.63
2024-04-14T02:22:55.865Z,61.73
2024-04-14T02:23:05.976Z,61.73
2024-04-14T02:23:25.835Z,61.73
2024-04-14T02:23:35.927Z,61.73
2024-04-14T02:23:45.872Z,61.73
2024-04-14T02:23:55.842Z,61.76
2024-04-14T02:24:05.887Z,61.73
2024-04-14T02:24:18.797Z,61.83
2024-04-14T02:24:36.094Z,61.76
2024-04-14T02:24:47.900Z,61.73
2024-04-14T02:24:55.913Z,61.83
2024-04-14T02:25:05.908Z,61.83
2024-04-14T02:25:16.010Z,61.83
2024-04-14T02:25:25.838Z,61.83
2024-04-14T02:25:45.877Z,61.86
2024-04-14T02:25:55.854Z,61.86
2024-04-14T02:26:05.902Z,61.83
2024-04-14T02:26:15.845Z,61.83
2024-04-14T02:26:25.936Z,61.96
2024-04-14T02:26:35.887Z,61.83
2024-04-14T02:26:45.912Z,61.93
2024-04-14T02:27:05.840Z,61.93
2024-04-14T02:27:16.821Z,61.93
2024-04-14T02:27:25.875Z,61.93
2024-04-14T02:27:35.919Z,61.96
2024-04-14T02:27:45.844Z,61.83
2024-04-14T02:27:55.916Z,61.93